Time;durP1;ratioP1;P1;durP2;ratioP2;P2;SDS_P1;SDS_P2;PMS_P1;PMS_P2;Temp;Humidity;BMP_temperature;BMP_pressure;BME280_temperature;BME280_humidity;BME280_pressure;Samples;Min_cycle;Max_cycle;Signal;HPM_P1;HPM_P2
2021/10/10 00:01:44;;;;;;;5.47;3.30;;;4.10;99.90;;;;;;4937053;29;20046;-80
2021/10/10 00:04:10;;;;;;;5.03;3.17;;;4.10;99.90;;;;;;4937691;29;20605;-79
2021/10/10 00:06:36;;;;;;;7.05;3.15;;;4.00;99.90;;;;;;4935158;29;20036;-79
2021/10/10 00:09:03;;;;;;;7.10;3.15;;;4.00;99.90;;;;;;4954575;28;20038;-78
2021/10/10 00:11:29;;;;;;;4.70;3.03;;;3.90;99.90;;;;;;4954378;29;20032;-79
2021/10/10 00:13:55;;;;;;;7.63;3.03;;;3.90;99.90;;;;;;4926045;29;20047;-78
2021/10/10 00:16:21;;;;;;;5.93;3.58;;;3.80;99.90;;;;;;4932073;29;20125;-79
2021/10/10 00:18:47;;;;;;;6.85;2.97;;;3.80;99.90;;;;;;4955740;29;20371;-77
2021/10/10 00:21:14;;;;;;;5.55;3.40;;;3.70;99.90;;;;;;4946379;29;20046;-80
2021/10/10 00:23:39;;;;;;;6.15;3.35;;;3.70;99.90;;;;;;4932110;29;20044;-79
2021/10/10 00:26:05;;;;;;;6.95;3.05;;;3.70;99.90;;;;;;4955765;29;20039;-80
2021/10/10 00:28:31;;;;;;;3.97;3.05;;;3.60;99.90;;;;;;4950064;29;20114;-79
2021/10/10 00:30:57;;;;;;;7.20;3.28;;;3.60;99.90;;;;;;4946101;28;20184;-80
2021/10/10 00:33:27;;;;;;;6.25;3.38;;;3.60;99.90;;;;;;4935828;29;20035;-79
2021/10/10 00:35:53;;;;;;;6.18;3.75;;;3.50;99.90;;;;;;4931544;29;20614;-78
2021/10/10 00:38:19;;;;;;;5.57;3.20;;;3.50;99.90;;;;;;4932918;29;20067;-79
2021/10/10 00:40:45;;;;;;;5.20;3.22;;;3.50;99.90;;;;;;4949933;28;20055;-78
2021/10/10 00:43:11;;;;;;;7.20;3.30;;;3.50;99.90;;;;;;4938089;29;20176;-79
2021/10/10 00:45:37;;;;;;;5.40;3.25;;;3.50;99.90;;;;;;4938605;29;20454;-80
2021/10/10 00:48:03;;;;;;;5.03;3.28;;;3.50;99.90;;;;;;4955063;29;20039;-79
2021/10/10 00:50:31;;;;;;;5.82;3.13;;;3.50;99.90;;;;;;4952188;28;20167;-80
2021/10/10 00:52:58;;;;;;;4.72;3.25;;;3.40;99.90;;;;;;4907385;29;20053;-78
2021/10/10 00:55:26;;;;;;;5.65;3.28;;;3.40;99.90;;;;;;4929583;29;20091;-78
2021/10/10 00:57:53;;;;;;;8.13;3.22;;;3.40;99.90;;;;;;4937934;29;20709;-80
2021/10/10 01:00:20;;;;;;;9.85;3.40;;;3.30;99.90;;;;;;4928043;29;20114;-80
2021/10/10 01:02:47;;;;;;;6.63;3.05;;;3.30;99.90;;;;;;4933830;29;20036;-79
2021/10/10 01:05:14;;;;;;;7.22;3.03;;;3.30;99.90;;;;;;4949843;29;20134;-79
2021/10/10 01:07:40;;;;;;;5.88;2.92;;;3.30;99.90;;;;;;4955966;28;20134;-78
2021/10/10 01:10:08;;;;;;;4.25;2.85;;;3.20;99.90;;;;;;4953688;28;20055;-79
2021/10/10 01:12:34;;;;;;;5.10;3.33;;;3.30;99.90;;;;;;4954359;28;20542;-79
2021/10/10 01:15:02;;;;;;;4.93;3.20;;;3.20;99.90;;;;;;4948545;29;20023;-79
2021/10/10 01:17:28;;;;;;;6.07;2.83;;;3.20;99.90;;;;;;4939690;29;20041;-79
2021/10/10 01:19:54;;;;;;;6.05;3.10;;;3.20;99.90;;;;;;4944321;29;20105;-80
2021/10/10 01:22:21;;;;;;;5.03;2.92;;;3.20;99.90;;;;;;4942749;29;20066;-80
2021/10/10 01:24:47;;;;;;;4.90;3.28;;;3.10;99.90;;;;;;4959143;29;20019;-80
2021/10/10 01:27:14;;;;;;;5.15;3.13;;;3.10;99.90;;;;;;4959476;29;20038;-80
2021/10/10 01:29:40;;;;;;;4.82;2.72;;;3.10;99.90;;;;;;4958764;28;20031;-80
2021/10/10 01:32:07;;;;;;;5.38;3.22;;;3.00;99.90;;;;;;4957950;29;20035;-79
2021/10/10 01:34:33;;;;;;;7.82;3.47;;;3.00;99.90;;;;;;4954703;29;20441;-80
2021/10/10 01:36:58;;;;;;;4.45;3.17;;;2.90;99.90;;;;;;4951297;29;20035;-79
2021/10/10 01:39:24;;;;;;;3.75;2.40;;;2.90;99.90;;;;;;4951868;29;20046;-79
2021/10/10 01:41:50;;;;;;;6.55;3.10;;;2.90;99.90;;;;;;4940944;29;20118;-79
2021/10/10 01:44:16;;;;;;;4.07;2.92;;;2.90;99.90;;;;;;4954341;29;20032;-78
2021/10/10 01:46:43;;;;;;;6.85;3.17;;;2.80;99.90;;;;;;4932996;29;20438;-80
2021/10/10 01:49:09;;;;;;;4.63;3.50;;;2.80;99.90;;;;;;4945271;28;20434;-79
2021/10/10 01:51:35;;;;;;;6.15;3.00;;;2.80;99.90;;;;;;4937972;29;20043;-80
2021/10/10 01:54:01;;;;;;;5.38;3.05;;;2.70;99.90;;;;;;4926988;29;20039;-79
2021/10/10 01:56:28;;;;;;;4.03;3.05;;;2.70;99.90;;;;;;4949656;29;20035;-80
2021/10/10 01:58:53;;;;;;;8.05;3.33;;;2.70;99.90;;;;;;4949138;29;20071;-78
2021/10/10 02:01:19;;;;;;;5.60;3.42;;;2.60;99.90;;;;;;4939457;29;20073;-80
2021/10/10 02:03:45;;;;;;;6.28;3.38;;;2.60;99.90;;;;;;4954929;29;20027;-78
2021/10/10 02:06:10;;;;;;;5.70;3.42;;;2.60;99.90;;;;;;4934005;29;20482;-79
2021/10/10 02:08:36;;;;;;;5.15;3.20;;;2.60;99.90;;;;;;4946466;29;20050;-79
2021/10/10 02:11:02;;;;;;;7.18;3.47;;;2.60;99.90;;;;;;4957507;28;20484;-78
2021/10/10 02:13:28;;;;;;;6.88;3.78;;;2.50;99.90;;;;;;4932622;29;20027;-80
2021/10/10 02:15:53;;;;;;;7.30;4.00;;;2.50;99.90;;;;;;4930529;29;20261;-79
2021/10/10 02:18:19;;;;;;;5.40;3.42;;;2.50;99.90;;;;;;4954670;29;20527;-79
2021/10/10 02:20:45;;;;;;;4.20;2.83;;;2.50;99.90;;;;;;4939337;29;20039;-78
2021/10/10 02:23:11;;;;;;;6.25;2.88;;;2.50;99.90;;;;;;4926232;29;20040;-79
2021/10/10 02:25:36;;;;;;;5.57;2.95;;;2.50;99.90;;;;;;4953735;29;20062;-77
2021/10/10 02:28:02;;;;;;;4.88;3.53;;;2.50;99.90;;;;;;4936956;29;20454;-78
2021/10/10 02:30:28;;;;;;;6.55;3.47;;;2.50;99.90;;;;;;4954424;28;20032;-79
2021/10/10 02:32:54;;;;;;;6.95;3.63;;;2.40;99.90;;;;;;4934170;29;20031;-80
2021/10/10 02:35:20;;;;;;;5.90;3.35;;;2.40;99.90;;;;;;4937016;29;20398;-80
2021/10/10 02:37:46;;;;;;;4.80;3.20;;;2.40;99.90;;;;;;4951317;29;20066;-79
2021/10/10 02:40:12;;;;;;;5.05;2.95;;;2.40;99.90;;;;;;4949416;28;20032;-79
2021/10/10 02:42:38;;;;;;;6.03;3.13;;;2.40;99.90;;;;;;4937081;29;20050;-77
2021/10/10 02:45:07;;;;;;;6.25;3.33;;;2.30;99.90;;;;;;4948664;29;20173;-79
2021/10/10 02:47:33;;;;;;;7.15;3.47;;;2.30;99.90;;;;;;4929032;29;20050;-78
2021/10/10 02:49:59;;;;;;;4.40;3.05;;;2.30;99.90;;;;;;4946734;28;20031;-80
2021/10/10 02:52:25;;;;;;;4.95;3.45;;;2.30;99.90;;;;;;4952734;29;20044;-80
2021/10/10 02:54:51;;;;;;;5.88;3.13;;;2.20;99.90;;;;;;4952809;29;20394;-78
2021/10/10 02:57:17;;;;;;;5.43;3.00;;;2.20;99.90;;;;;;4931669;29;20035;-80
2021/10/10 02:59:43;;;;;;;6.35;2.92;;;2.20;99.90;;;;;;4949726;29;20062;-77
2021/10/10 03:02:09;;;;;;;5.95;3.45;;;2.20;99.90;;;;;;4938887;29;20454;-80
2021/10/10 03:04:35;;;;;;;4.22;2.58;;;2.10;99.90;;;;;;4940279;29;20544;-78
2021/10/10 03:07:00;;;;;;;6.25;3.22;;;2.10;99.90;;;;;;4956903;29;20043;-79
2021/10/10 03:09:26;;;;;;;4.05;2.67;;;2.10;99.90;;;;;;4946263;29;20039;-79
2021/10/10 03:11:52;;;;;;;5.90;3.60;;;2.10;99.90;;;;;;4917727;29;20600;-80
2021/10/10 03:14:17;;;;;;;6.25;3.60;;;2.00;99.90;;;;;;4924239;29;20043;-80
2021/10/10 03:16:43;;;;;;;5.78;3.42;;;2.10;99.90;;;;;;4933009;29;20050;-80
2021/10/10 03:19:09;;;;;;;6.82;3.50;;;2.10;99.90;;;;;;4942940;28;20042;-79
2021/10/10 03:21:35;;;;;;;7.30;3.55;;;2.10;99.90;;;;;;4950964;29;20067;-78
2021/10/10 03:24:01;;;;;;;6.85;3.45;;;2.10;99.90;;;;;;4912833;29;20055;-79
2021/10/10 03:26:27;;;;;;;8.43;3.88;;;2.00;99.90;;;;;;4936712;29;20554;-79
2021/10/10 03:28:52;;;;;;;9.30;4.03;;;2.00;99.90;;;;;;4936059;29;20051;-78
2021/10/10 03:31:18;;;;;;;7.03;3.50;;;2.00;99.90;;;;;;4925699;29;20059;-79
2021/10/10 03:33:44;;;;;;;6.25;3.55;;;2.00;99.90;;;;;;4931638;28;20296;-79
2021/10/10 03:36:10;;;;;;;5.72;3.50;;;2.00;99.90;;;;;;4933189;29;20038;-79
2021/10/10 03:38:36;;;;;;;5.75;3.53;;;2.00;99.90;;;;;;4948133;29;20071;-79
2021/10/10 03:41:02;;;;;;;7.57;3.97;;;2.00;99.90;;;;;;4933945;29;20039;-79
2021/10/10 03:43:28;;;;;;;4.65;3.10;;;2.00;99.90;;;;;;4932047;29;20035;-79
2021/10/10 03:45:54;;;;;;;7.22;3.65;;;1.90;99.90;;;;;;4945394;29;20103;-79
2021/10/10 03:48:20;;;;;;;6.32;3.33;;;1.90;99.90;;;;;;4931818;29;20027;-78
2021/10/10 03:50:46;;;;;;;8.20;3.50;;;1.90;99.90;;;;;;4944894;29;20023;-79
2021/10/10 03:53:11;;;;;;;5.80;3.10;;;1.90;99.90;;;;;;4918934;29;20130;-79
2021/10/10 03:55:38;;;;;;;8.27;3.33;;;1.80;99.90;;;;;;4926145;29;20398;-79
2021/10/10 03:58:05;;;;;;;7.63;3.78;;;1.80;99.90;;;;;;4918347;29;20473;-78
2021/10/10 04:00:32;;;;;;;5.95;3.50;;;1.80;99.90;;;;;;4947418;28;20053;-79
2021/10/10 04:03:02;;;;;;;6.55;3.95;;;1.70;99.90;;;;;;4944236;29;20058;-78
2021/10/10 04:07:53;;;;;;;6.72;3.22;;;1.70;99.90;;;;;;4930771;29;20034;-78
2021/10/10 04:10:19;;;;;;;6.35;3.33;;;1.60;99.90;;;;;;4943209;29;20036;-79
2021/10/10 04:12:45;;;;;;;7.88;3.78;;;1.60;99.90;;;;;;4949412;29;20036;-79
2021/10/10 04:15:12;;;;;;;6.10;4.47;;;1.60;99.90;;;;;;4944816;29;20046;-79
2021/10/10 04:17:38;;;;;;;6.15;3.35;;;1.60;99.90;;;;;;4950630;29;20923;-78
2021/10/10 04:20:05;;;;;;;7.53;3.67;;;1.60;99.90;;;;;;4933459;29;20035;-78
2021/10/10 04:22:31;;;;;;;6.45;3.63;;;1.60;99.90;;;;;;4939450;29;20067;-79
2021/10/10 04:24:57;;;;;;;7.68;3.35;;;1.60;99.90;;;;;;4955225;29;20031;-78
2021/10/10 04:27:22;;;;;;;6.40;3.40;;;1.50;99.90;;;;;;4953232;29;20035;-79
2021/10/10 04:29:48;;;;;;;8.80;3.92;;;1.50;99.90;;;;;;4953163;28;20032;-78
2021/10/10 04:32:14;;;;;;;6.13;3.70;;;1.50;99.90;;;;;;4926189;29;20095;-78
2021/10/10 04:34:39;;;;;;;5.88;3.20;;;1.50;99.90;;;;;;4944840;29;20132;-79
2021/10/10 04:37:06;;;;;;;4.70;3.28;;;1.50;99.90;;;;;;4954329;29;20035;-79
2021/10/10 04:39:32;;;;;;;7.57;3.33;;;1.40;99.90;;;;;;4954368;28;20106;-79
2021/10/10 04:41:58;;;;;;;4.60;2.95;;;1.40;99.90;;;;;;4947840;29;20070;-78
2021/10/10 04:44:23;;;;;;;11.35;3.20;;;1.30;99.90;;;;;;4935371;29;20035;-79
2021/10/10 04:46:49;;;;;;;5.18;3.08;;;1.30;99.90;;;;;;4951390;28;20414;-78
2021/10/10 04:49:15;;;;;;;7.22;2.95;;;1.30;99.90;;;;;;4945443;28;20035;-78
2021/10/10 04:51:41;;;;;;;8.32;3.97;;;1.30;99.90;;;;;;4933077;29;20039;-78
2021/10/10 04:54:06;;;;;;;5.28;3.58;;;1.40;99.90;;;;;;4925665;29;20058;-79
2021/10/10 04:56:32;;;;;;;6.68;3.47;;;1.30;99.90;;;;;;4957878;29;20038;-77
2021/10/10 04:58:58;;;;;;;8.60;3.83;;;1.30;99.90;;;;;;4941422;28;20043;-78
2021/10/10 05:01:23;;;;;;;6.22;3.70;;;1.30;99.90;;;;;;4941394;29;20035;-77
2021/10/10 05:03:49;;;;;;;4.95;3.17;;;1.30;99.90;;;;;;4920103;29;20055;-80
2021/10/10 05:06:15;;;;;;;7.20;3.92;;;1.30;99.90;;;;;;4931109;29;20043;-80
2021/10/10 05:08:40;;;;;;;5.35;3.40;;;1.20;99.90;;;;;;4958162;29;20122;-80
2021/10/10 05:11:07;;;;;;;5.95;3.30;;;1.20;99.90;;;;;;4926169;29;20378;-80
2021/10/10 05:13:36;;;;;;;7.18;3.63;;;1.20;99.90;;;;;;4925117;29;20086;-80
2021/10/10 05:16:03;;;;;;;6.05;3.47;;;1.20;99.90;;;;;;4956728;29;20090;-80
2021/10/10 05:18:29;;;;;;;6.68;3.40;;;1.10;99.90;;;;;;4956490;29;20035;-80
2021/10/10 05:20:55;;;;;;;6.90;3.67;;;1.10;99.90;;;;;;4952260;28;20556;-79
2021/10/10 05:23:20;;;;;;;7.93;3.65;;;1.10;99.90;;;;;;4940835;29;20067;-80
2021/10/10 05:25:46;;;;;;;6.18;3.80;;;1.10;99.90;;;;;;4940838;29;20038;-79
2021/10/10 05:28:12;;;;;;;7.22;3.40;;;1.10;99.90;;;;;;4953726;29;20035;-79
2021/10/10 05:30:38;;;;;;;4.88;3.20;;;1.10;99.90;;;;;;4954193;28;20020;-79
2021/10/10 05:33:03;;;;;;;5.60;3.45;;;1.10;99.90;;;;;;4949441;29;20043;-79
2021/10/10 05:35:29;;;;;;;8.25;3.95;;;1.00;99.90;;;;;;4950577;29;20046;-79
2021/10/10 05:37:55;;;;;;;9.35;4.70;;;1.00;99.90;;;;;;4945147;29;20523;-78
2021/10/10 05:40:20;;;;;;;6.60;3.90;;;1.00;99.90;;;;;;4933688;29;20035;-79
2021/10/10 05:42:46;;;;;;;9.50;4.07;;;1.00;99.90;;;;;;4956482;29;20035;-79
2021/10/10 05:45:12;;;;;;;7.15;4.47;;;1.00;99.90;;;;;;4936728;29;20114;-79
2021/10/10 05:47:38;;;;;;;5.35;3.83;;;1.10;99.90;;;;;;4938170;29;20054;-79
2021/10/10 05:50:05;;;;;;;10.77;4.43;;;1.10;99.90;;;;;;4923678;29;20063;-80
2021/10/10 05:52:31;;;;;;;8.82;4.00;;;1.10;99.90;;;;;;4939491;29;20027;-79
2021/10/10 05:54:56;;;;;;;7.53;3.97;;;1.10;99.90;;;;;;4939895;29;20438;-79
2021/10/10 06:00:20;;;;;;;11.93;5.07;;;1.10;99.90;;;;;;4909138;29;20031;-79
2021/10/10 06:02:47;;;;;;;6.97;4.10;;;1.10;99.90;;;;;;4939491;29;20031;-80
2021/10/10 06:05:15;;;;;;;10.95;6.38;;;1.10;99.90;;;;;;4938909;29;20046;-79
2021/10/10 06:07:41;;;;;;;10.88;5.63;;;1.10;99.90;;;;;;4952921;29;20062;-80
2021/10/10 06:10:07;;;;;;;8.48;4.82;;;1.10;99.90;;;;;;4935785;29;20090;-80
2021/10/10 06:12:35;;;;;;;8.98;4.70;;;1.10;99.90;;;;;;4956397;29;20035;-79
2021/10/10 06:15:03;;;;;;;7.25;4.13;;;1.10;99.90;;;;;;4931026;29;20036;-78
2021/10/10 06:17:30;;;;;;;8.27;4.50;;;1.10;99.90;;;;;;4955271;29;20035;-79
2021/10/10 06:19:56;;;;;;;9.13;4.80;;;1.10;99.90;;;;;;4947819;29;20031;-80
2021/10/10 06:22:22;;;;;;;8.25;4.68;;;1.20;99.90;;;;;;4953064;29;20394;-80
2021/10/10 06:24:48;;;;;;;7.07;4.00;;;1.30;99.90;;;;;;4956464;29;20487;-79
2021/10/10 06:27:15;;;;;;;8.23;5.13;;;1.30;99.90;;;;;;4941467;29;20593;-78
2021/10/10 06:29:40;;;;;;;7.72;4.93;;;1.40;99.90;;;;;;4922220;29;20403;-80
2021/10/10 06:32:06;;;;;;;9.55;4.78;;;1.50;99.90;;;;;;4956263;29;20027;-79
2021/10/10 06:34:32;;;;;;;11.35;4.97;;;1.60;99.90;;;;;;4953733;29;20061;-80
2021/10/10 06:36:57;;;;;;;8.75;4.25;;;1.80;99.90;;;;;;4933787;29;20043;-80
2021/10/10 06:39:23;;;;;;;9.50;4.53;;;2.10;99.90;;;;;;4928415;29;20040;-79
2021/10/10 06:41:50;;;;;;;7.60;3.85;;;2.50;99.90;;;;;;4950915;28;20418;-80
2021/10/10 06:44:17;;;;;;;9.63;4.82;;;2.90;99.90;;;;;;4905442;29;20043;-79
2021/10/10 06:46:44;;;;;;;7.50;3.95;;;3.20;99.90;;;;;;4938153;29;20174;-80
2021/10/10 06:49:11;;;;;;;8.52;4.10;;;3.50;99.90;;;;;;4930348;28;20046;-80
2021/10/10 06:51:37;;;;;;;5.53;3.47;;;3.70;99.90;;;;;;4936104;29;20031;-80
2021/10/10 06:54:03;;;;;;;9.02;4.65;;;4.00;99.90;;;;;;4930453;28;20392;-79
2021/10/10 06:56:28;;;;;;;7.15;4.70;;;4.30;99.90;;;;;;4927423;29;20039;-80
2021/10/10 06:58:54;;;;;;;10.48;5.63;;;4.50;99.90;;;;;;4932699;29;20032;-79
2021/10/10 07:01:20;;;;;;;9.20;5.05;;;4.50;99.90;;;;;;4955139;28;20034;-79
2021/10/10 07:03:46;;;;;;;13.05;6.10;;;4.60;99.90;;;;;;4918071;28;20046;-79
2021/10/10 07:06:11;;;;;;;10.10;4.88;;;4.60;99.90;;;;;;4938857;29;20071;-79
2021/10/10 07:08:37;;;;;;;8.68;4.93;;;4.60;99.90;;;;;;4930501;29;20398;-79
2021/10/10 07:11:03;;;;;;;7.45;4.45;;;4.70;99.90;;;;;;4956274;28;20059;-78
2021/10/10 07:13:28;;;;;;;8.68;4.65;;;4.60;99.90;;;;;;4953720;29;20050;-80
2021/10/10 07:15:55;;;;;;;10.13;4.47;;;4.60;99.90;;;;;;4940791;29;20059;-80
2021/10/10 07:18:25;;;;;;;8.88;4.93;;;4.50;99.90;;;;;;4938561;29;20050;-79
2021/10/10 07:26:03;;;;;;;9.38;4.82;;;4.40;99.90;;;;;;4951661;29;20036;-79
2021/10/10 07:28:29;;;;;;;10.45;5.75;;;4.30;99.90;;;;;;4915873;29;20110;-79
2021/10/10 07:30:55;;;;;;;11.90;6.18;;;4.30;99.90;;;;;;4954286;28;20035;-78
2021/10/10 07:33:21;;;;;;;12.98;6.03;;;4.30;99.90;;;;;;4955097;29;20039;-79
2021/10/10 07:35:46;;;;;;;11.05;5.28;;;4.20;99.90;;;;;;4951112;29;20051;-79
2021/10/10 07:38:12;;;;;;;8.25;4.97;;;4.20;99.90;;;;;;4937062;29;20831;-78
2021/10/10 07:40:38;;;;;;;9.85;5.30;;;4.20;99.90;;;;;;4953592;28;20046;-78
2021/10/10 07:43:04;;;;;;;11.88;5.45;;;4.20;99.90;;;;;;4932878;29;20032;-79
2021/10/10 07:45:31;;;;;;;11.38;6.72;;;4.10;99.90;;;;;;4947460;29;20044;-81
2021/10/10 07:48:02;;;;;;;10.80;6.10;;;4.10;99.90;;;;;;4956548;29;20529;-77
2021/10/10 07:50:28;;;;;;;9.40;5.22;;;4.10;99.90;;;;;;4938852;29;20059;-80
2021/10/10 07:52:54;;;;;;;9.52;5.47;;;4.10;99.90;;;;;;4954630;29;20031;-80
2021/10/10 07:55:20;;;;;;;10.20;5.82;;;4.10;99.90;;;;;;4947995;28;20047;-81
2021/10/10 07:57:45;;;;;;;18.10;6.85;;;4.20;99.90;;;;;;4935700;29;20039;-81
2021/10/10 08:00:11;;;;;;;11.98;6.35;;;4.20;99.90;;;;;;4920121;29;20049;-79
2021/10/10 08:02:58;;;;;;;11.77;6.45;;;4.20;99.90;;;;;;4922206;29;20035;-80
2021/10/10 08:05:26;;;;;;;14.90;7.35;;;4.30;99.90;;;;;;4951299;29;20500;-80
2021/10/10 08:07:53;;;;;;;10.65;5.78;;;4.40;99.90;;;;;;4954716;29;20036;-81
2021/10/10 08:10:20;;;;;;;10.68;6.60;;;4.50;99.90;;;;;;4930655;29;20042;-79
2021/10/10 08:12:46;;;;;;;10.35;5.25;;;4.60;99.90;;;;;;4916978;29;20479;-80
2021/10/10 08:15:12;;;;;;;11.38;6.32;;;4.60;99.90;;;;;;4917914;29;20140;-78
2021/10/10 08:17:38;;;;;;;11.18;6.25;;;4.70;99.90;;;;;;4952530;29;20507;-80
2021/10/10 08:20:05;;;;;;;10.65;6.35;;;4.80;99.90;;;;;;4929953;29;20083;-79
2021/10/10 08:22:34;;;;;;;10.18;5.95;;;4.80;99.90;;;;;;4944147;29;20031;-80
2021/10/10 08:25:00;;;;;;;8.27;5.90;;;4.90;99.90;;;;;;4923870;29;20049;-78
2021/10/10 08:27:26;;;;;;;11.73;6.00;;;4.90;99.90;;;;;;4931679;29;20035;-80
2021/10/10 08:29:51;;;;;;;12.65;6.28;;;5.00;99.90;;;;;;4945738;29;20086;-78
2021/10/10 08:32:18;;;;;;;11.48;6.22;;;5.10;99.90;;;;;;4947036;29;20033;-79
2021/10/10 08:34:44;;;;;;;14.07;5.85;;;5.10;99.90;;;;;;4923722;29;20039;-79
2021/10/10 08:37:09;;;;;;;11.15;5.85;;;5.20;99.90;;;;;;4953471;29;20047;-80
2021/10/10 08:39:35;;;;;;;9.60;5.60;;;5.30;99.90;;;;;;4943302;29;20550;-80
2021/10/10 08:42:03;;;;;;;12.90;6.35;;;5.40;99.90;;;;;;4949940;29;20496;-79
2021/10/10 08:44:39;;;;;;;11.88;6.00;;;5.50;99.90;;;;;;4957249;29;20035;-80
2021/10/10 08:47:09;;;;;;;11.48;6.28;;;5.60;99.90;;;;;;4954974;29;20036;-80
2021/10/10 08:49:36;;;;;;;9.55;5.88;;;5.70;99.90;;;;;;4953801;28;20063;-81
2021/10/10 08:52:07;;;;;;;9.50;6.10;;;5.70;99.90;;;;;;4946217;29;20035;-81
2021/10/10 08:54:33;;;;;;;11.38;6.57;;;5.90;99.90;;;;;;4953551;29;20046;-81
2021/10/10 08:56:59;;;;;;;11.15;5.70;;;6.00;99.90;;;;;;4952571;29;20031;-80
2021/10/10 08:59:26;;;;;;;11.10;6.68;;;6.10;99.90;;;;;;4953371;28;20069;-80
2021/10/10 09:01:57;;;;;;;11.40;6.03;;;6.20;99.90;;;;;;4950511;29;20046;-80
2021/10/10 09:04:23;;;;;;;12.02;6.72;;;6.40;99.90;;;;;;4939771;29;20190;-81
2021/10/10 09:06:50;;;;;;;10.57;6.15;;;6.60;99.90;;;;;;4938867;29;20031;-79
2021/10/10 09:09:33;;;;;;;10.55;6.18;;;6.70;99.90;;;;;;4939819;28;20057;-80
2021/10/10 09:12:06;;;;;;;12.23;7.10;;;6.80;99.90;;;;;;4941032;29;20398;-80
2021/10/10 09:14:41;;;;;;;9.77;5.63;;;6.90;99.90;;;;;;4952611;29;20051;-80
2021/10/10 09:17:09;;;;;;;14.45;6.95;;;7.00;99.90;;;;;;4938998;29;20040;-81
2021/10/10 09:19:35;;;;;;;11.00;6.00;;;7.20;99.90;;;;;;4931806;29;20556;-79
2021/10/10 09:22:04;;;;;;;13.77;6.38;;;7.40;99.90;;;;;;4952109;29;20044;-80
2021/10/10 09:24:30;;;;;;;16.85;6.97;;;7.50;99.90;;;;;;4949435;29;20044;-80
2021/10/10 09:26:56;;;;;;;15.68;6.93;;;7.70;99.90;;;;;;4933339;29;20032;-80
2021/10/10 09:29:39;;;;;;;11.98;5.97;;;7.80;99.90;;;;;;4954371;28;20398;-79
2021/10/10 09:32:09;;;;;;;12.30;6.38;;;7.90;99.90;;;;;;4935574;29;20056;-79
2021/10/10 09:34:39;;;;;;;14.40;6.60;;;8.00;99.90;;;;;;4954165;29;20500;-80
2021/10/10 09:37:25;;;;;;;10.35;5.57;;;8.00;99.90;;;;;;4958090;29;20070;-80
2021/10/10 09:40:21;;;;;;;12.50;6.80;;;8.10;99.90;;;;;;4956612;29;20094;-80
2021/10/10 09:42:45;;;;;;;10.52;5.53;;;8.20;99.90;;;;;;4949148;29;20048;-79
2021/10/10 09:45:29;;;;;;;12.02;6.28;;;8.20;99.90;;;;;;4956724;29;20123;-80
2021/10/10 09:48:04;;;;;;;13.88;6.20;;;8.30;99.90;;;;;;4958918;29;20039;-80
2021/10/10 09:50:35;;;;;;;15.82;6.60;;;8.30;99.90;;;;;;4959697;28;20062;-79
2021/10/10 09:53:09;;;;;;;10.30;5.60;;;8.50;99.90;;;;;;4942324;29;20104;-80
2021/10/10 09:55:59;;;;;;;11.88;5.90;;;8.50;99.90;;;;;;4949647;29;20490;-79
2021/10/10 09:58:42;;;;;;;13.60;6.18;;;8.60;99.90;;;;;;4960398;29;20494;-79
2021/10/10 10:01:12;;;;;;;16.02;6.55;;;8.70;99.90;;;;;;4949957;29;20204;-79
2021/10/10 10:04:03;;;;;;;13.80;6.28;;;8.70;99.90;;;;;;4952029;29;20094;-79
2021/10/10 10:06:39;;;;;;;12.00;6.50;;;8.80;99.90;;;;;;4955586;29;20039;-80
2021/10/10 10:09:07;;;;;;;10.63;6.22;;;8.90;99.90;;;;;;4934244;29;20083;-80
2021/10/10 10:11:38;;;;;;;14.25;6.38;;;9.00;99.90;;;;;;4951953;29;20031;-79
2021/10/10 10:14:10;;;;;;;9.70;5.55;;;9.10;99.90;;;;;;4948946;29;20065;-80
2021/10/10 10:16:41;;;;;;;10.65;6.03;;;9.00;99.90;;;;;;4960526;29;20023;-80
2021/10/10 10:19:11;;;;;;;16.73;6.45;;;9.10;99.90;;;;;;4958854;29;20032;-80
2021/10/10 10:21:37;;;;;;;11.38;6.07;;;9.20;99.90;;;;;;4962211;28;20019;-79
2021/10/10 10:24:06;;;;;;;11.13;6.07;;;9.20;99.90;;;;;;4961935;29;20039;-80
2021/10/10 10:26:34;;;;;;;9.73;5.70;;;9.30;99.90;;;;;;4961546;29;20051;-80
2021/10/10 10:29:05;;;;;;;16.90;6.65;;;9.30;99.90;;;;;;4960737;28;20027;-80
2021/10/10 10:31:33;;;;;;;10.57;5.70;;;9.30;99.90;;;;;;4960424;29;20171;-79
2021/10/10 10:34:22;;;;;;;9.25;5.60;;;9.40;99.90;;;;;;4960086;29;20032;-80
2021/10/10 10:36:58;;;;;;;11.65;5.82;;;9.40;99.90;;;;;;4959524;29;20035;-79
2021/10/10 10:39:36;;;;;;;11.60;6.22;;;9.50;99.90;;;;;;4945117;29;20082;-80
2021/10/10 10:42:04;;;;;;;16.40;6.28;;;9.50;99.90;;;;;;4961545;29;20039;-80
2021/10/10 10:44:34;;;;;;;11.98;6.25;;;9.70;99.90;;;;;;4957479;29;20466;-79
2021/10/10 10:47:07;;;;;;;11.40;5.80;;;9.80;99.90;;;;;;4941094;29;20054;-80
2021/10/10 10:49:52;;;;;;;9.95;6.30;;;9.90;99.90;;;;;;4935796;29;20043;-79
2021/10/10 10:52:28;;;;;;;14.35;6.55;;;9.80;99.90;;;;;;4958697;29;20031;-79
2021/10/10 10:55:12;;;;;;;10.10;5.22;;;9.70;99.90;;;;;;4956446;29;20081;-80
2021/10/10 10:57:43;;;;;;;10.23;5.93;;;9.80;99.90;;;;;;4953579;29;20038;-80
2021/10/10 11:00:42;;;;;;;13.30;6.35;;;9.90;99.90;;;;;;4949808;29;20023;-79
2021/10/10 11:03:16;;;;;;;8.90;5.28;;;10.00;99.90;;;;;;4944850;29;20027;-80
2021/10/10 11:05:47;;;;;;;11.35;5.93;;;10.00;99.90;;;;;;4953253;29;20475;-79
2021/10/10 11:08:16;;;;;;;8.77;5.82;;;10.00;99.90;;;;;;4943489;29;20350;-79
2021/10/10 11:11:04;;;;;;;9.73;5.40;;;10.00;99.90;;;;;;4960867;29;20034;-80
2021/10/10 11:13:46;;;;;;;9.73;5.13;;;10.10;99.90;;;;;;4955982;29;20036;-79
2021/10/10 11:16:14;;;;;;;9.25;5.32;;;10.20;99.90;;;;;;4956293;29;20091;-79
2021/10/10 11:18:48;;;;;;;10.50;5.65;;;10.20;99.90;;;;;;4952534;29;20111;-79
2021/10/10 11:21:18;;;;;;;8.90;5.57;;;10.30;98.40;;;;;;4946095;29;20039;-80
2021/10/10 11:23:48;;;;;;;13.90;5.60;;;10.30;99.90;;;;;;4955611;29;20035;-80
2021/10/10 11:26:13;;;;;;;7.72;4.70;;;10.30;99.90;;;;;;4947429;29;20098;-80
2021/10/10 11:28:45;;;;;;;8.38;4.93;;;10.30;99.90;;;;;;4948436;29;20043;-80
2021/10/10 11:31:22;;;;;;;8.68;4.93;;;10.30;99.90;;;;;;4915052;29;20062;-79
2021/10/10 11:33:56;;;;;;;8.15;4.25;;;10.30;99.90;;;;;;4930252;29;20046;-79
2021/10/10 11:36:34;;;;;;;8.30;4.78;;;10.30;99.90;;;;;;4908620;29;20058;-80
2021/10/10 11:39:01;;;;;;;11.57;5.00;;;10.20;99.90;;;;;;4929687;28;20129;-81
2021/10/10 11:41:28;;;;;;;13.43;5.15;;;10.30;99.20;;;;;;4952865;29;20398;-79
2021/10/10 11:44:00;;;;;;;8.80;5.28;;;10.40;97.70;;;;;;4943544;29;20035;-80
2021/10/10 11:46:36;;;;;;;7.43;4.80;;;10.50;95.90;;;;;;4947968;29;20031;-79
2021/10/10 11:49:02;;;;;;;9.27;5.13;;;10.60;95.90;;;;;;4944171;28;20402;-81
2021/10/10 11:51:38;;;;;;;7.15;4.57;;;10.70;95.80;;;;;;4949794;29;20035;-80
2021/10/10 11:54:05;;;;;;;10.18;4.80;;;10.70;96.30;;;;;;4945146;29;20047;-80
2021/10/10 11:56:31;;;;;;;9.30;4.80;;;10.80;96.70;;;;;;4945402;28;20106;-81
2021/10/10 11:59:13;;;;;;;8.02;4.68;;;10.80;95.10;;;;;;4946441;29;20094;-80
2021/10/10 12:01:39;;;;;;;8.20;4.53;;;10.80;93.30;;;;;;4918579;29;20070;-79
2021/10/10 12:04:05;;;;;;;10.63;5.15;;;10.90;93.10;;;;;;4925261;29;20039;-80
2021/10/10 12:06:31;;;;;;;11.02;4.60;;;10.90;94.00;;;;;;4931467;29;20507;-80
2021/10/10 12:09:10;;;;;;;10.88;5.15;;;11.00;93.80;;;;;;4925351;29;20061;-80
2021/10/10 12:11:40;;;;;;;9.40;4.70;;;11.00;93.60;;;;;;4947264;29;20510;-80
2021/10/10 12:14:06;;;;;;;9.13;4.78;;;11.00;94.30;;;;;;4939345;29;20028;-82
2021/10/10 12:16:43;;;;;;;7.82;4.80;;;11.10;95.20;;;;;;4940248;29;20046;-80
2021/10/10 12:19:10;;;;;;;9.05;4.53;;;11.10;91.30;;;;;;4939854;29;20399;-80
2021/10/10 12:21:37;;;;;;;6.78;4.07;;;11.20;92.70;;;;;;4925902;29;20086;-80
2021/10/10 12:24:04;;;;;;;7.93;4.80;;;11.30;93.80;;;;;;4938498;29;20058;-81
2021/10/10 12:26:46;;;;;;;7.43;4.40;;;11.30;90.50;;;;;;4942196;29;20364;-80
2021/10/10 12:29:20;;;;;;;7.00;3.97;;;11.40;91.50;;;;;;4938509;29;20110;-80
2021/10/10 12:31:45;;;;;;;7.22;4.40;;;11.40;94.20;;;;;;4925454;29;20102;-79
2021/10/10 12:34:11;;;;;;;9.75;4.97;;;11.50;95.90;;;;;;4940027;29;20055;-80
2021/10/10 12:36:43;;;;;;;8.65;5.03;;;11.50;91.70;;;;;;4945049;29;20105;-79
2021/10/10 12:39:09;;;;;;;8.38;3.88;;;11.50;91.80;;;;;;4922020;29;20036;-80
2021/10/10 12:41:34;;;;;;;8.02;4.43;;;11.50;92.60;;;;;;4912928;29;20050;-80
2021/10/10 12:44:00;;;;;;;9.20;4.47;;;11.60;90.40;;;;;;4943526;29;20036;-80
2021/10/10 12:46:27;;;;;;;9.48;4.63;;;11.70;89.60;;;;;;4927121;29;20031;-80
2021/10/10 12:49:05;;;;;;;8.65;4.45;;;11.60;88.00;;;;;;4924835;29;20055;-81
2021/10/10 12:51:33;;;;;;;6.35;4.35;;;11.60;87.70;;;;;;4925600;29;20044;-80
2021/10/10 12:54:23;;;;;;;7.10;4.20;;;11.60;91.40;;;;;;4940176;29;20119;-81
2021/10/10 12:57:02;;;;;;;6.20;4.00;;;11.60;91.70;;;;;;4914833;29;20036;-80
2021/10/10 12:59:28;;;;;;;7.35;4.40;;;11.60;91.30;;;;;;4923265;29;20546;-81
2021/10/10 13:01:53;;;;;;;5.60;3.30;;;11.60;83.90;;;;;;4942296;29;20110;-80
2021/10/10 13:04:20;;;;;;;6.65;3.92;;;11.60;82.40;;;;;;4947041;29;20115;-82
2021/10/10 13:06:47;;;;;;;7.43;3.85;;;11.60;85.70;;;;;;4925618;28;20047;-81
2021/10/10 13:09:14;;;;;;;6.75;4.13;;;11.60;88.30;;;;;;4930982;28;20110;-82